createdAt,value
2018-03-25T00:00:42.087Z,43.50
2018-03-25T00:03:10.744Z,38.00
2018-03-25T00:05:40.179Z,41.80
2018-03-25T00:08:08.848Z,40.70
2018-03-25T00:10:37.516Z,43.13
2018-03-25T00:13:06.961Z,40.20
2018-03-25T00:15:35.638Z,39.10
2018-03-25T00:18:03.971Z,42.92
2018-03-25T00:20:32.638Z,39.28
2018-03-25T00:23:01.300Z,37.13
2018-03-25T00:25:30.902Z,36.28
2018-03-25T00:27:59.562Z,40.15
2018-03-25T00:30:28.998Z,40.60
2018-03-25T00:32:57.650Z,37.53
2018-03-25T00:35:27.075Z,38.60
2018-03-25T00:37:55.739Z,37.65
2018-03-25T00:40:25.174Z,42.88
2018-03-25T00:42:53.830Z,36.20
2018-03-25T00:45:23.276Z,38.95
2018-03-25T00:47:51.931Z,38.50
2018-03-25T00:50:20.602Z,43.20
2018-03-25T00:52:50.076Z,38.95
2018-03-25T00:55:18.895Z,37.65
2018-03-25T00:57:48.334Z,40.50
2018-03-25T01:00:16.676Z,36.03
2018-03-25T01:02:46.094Z,43.15
2018-03-25T01:05:15.571Z,43.80
2018-03-25T01:07:44.397Z,39.92
2018-03-25T01:10:13.964Z,39.85
2018-03-25T01:12:42.627Z,38.72
2018-03-25T01:15:10.638Z,35.70
2018-03-25T01:17:39.306Z,35.75
2018-03-25T01:20:08.186Z,37.58
2018-03-25T01:22:36.852Z,34.65
2018-03-25T01:25:05.523Z,39.78
2018-03-25T01:27:34.011Z,33.88
2018-03-25T01:30:02.343Z,35.88
2018-03-25T01:32:31.032Z,38.30
2018-03-25T01:34:59.868Z,35.97
2018-03-25T01:37:28.542Z,41.90
2018-03-25T01:39:57.200Z,35.83
2018-03-25T01:42:26.628Z,38.78
2018-03-25T01:44:55.283Z,37.75
2018-03-25T01:47:23.955Z,38.90
2018-03-25T01:49:52.620Z,34.63
2018-03-25T01:52:21.275Z,33.92
2018-03-25T01:54:49.939Z,36.95
2018-03-25T01:57:19.362Z,41.30
2018-03-25T01:59:48.029Z,34.90
2018-03-25T02:02:17.459Z,35.88
2018-03-25T02:04:46.115Z,35.28
2018-03-25T02:07:14.772Z,35.65
2018-03-25T02:09:43.442Z,33.38
2018-03-25T02:12:12.879Z,33.60
2018-03-25T02:14:41.530Z,36.97
2018-03-25T02:17:10.199Z,36.22
2018-03-25T02:19:38.866Z,39.92
2018-03-25T02:22:07.636Z,39.65
2018-03-25T02:24:36.294Z,40.22
2018-03-25T02:27:04.620Z,36.22
2018-03-25T02:29:34.051Z,39.47
2018-03-25T02:32:02.729Z,40.70
2018-03-25T02:34:31.395Z,40.00
2018-03-25T02:37:00.496Z,37.13
2018-03-25T02:39:29.229Z,41.35
2018-03-25T02:41:57.703Z,41.22
2018-03-25T02:44:26.377Z,41.95
2018-03-25T02:46:55.057Z,41.75
2018-03-25T02:49:23.731Z,39.50
2018-03-25T02:51:52.401Z,41.42
2018-03-25T02:54:21.829Z,35.97
2018-03-25T02:56:50.504Z,39.17
2018-03-25T02:59:19.939Z,41.28
2018-03-25T03:01:48.612Z,40.35
2018-03-25T03:04:17.283Z,37.75
2018-03-25T03:06:45.947Z,36.75
2018-03-25T03:09:14.283Z,38.80
2018-03-25T03:11:42.952Z,39.33
2018-03-25T03:14:11.615Z,43.87
2018-03-25T03:16:41.075Z,37.75
2018-03-25T03:19:09.754Z,39.10
2018-03-25T03:21:38.434Z,41.30
2018-03-25T03:24:07.095Z,41.95
2018-03-25T03:26:35.770Z,41.35
2018-03-25T03:29:05.206Z,39.80
2018-03-25T03:31:33.872Z,43.95
2018-03-25T03:34:02.546Z,39.30
2018-03-25T03:36:31.982Z,42.78
2018-03-25T03:39:00.648Z,37.17
2018-03-25T03:41:29.305Z,38.28
2018-03-25T03:43:58.739Z,42.03
2018-03-25T03:46:27.403Z,38.35
2018-03-25T03:48:56.866Z,42.90
2018-03-25T03:51:25.531Z,39.22
2018-03-25T03:53:54.191Z,41.20
2018-03-25T03:56:23.635Z,44.17
2018-03-25T03:58:52.303Z,43.85
2018-03-25T04:01:20.975Z,43.33
2018-03-25T04:03:50.406Z,40.38
2018-03-25T04:06:19.091Z,47.40
2018-03-25T04:08:48.546Z,42.10
2018-03-25T04:11:17.207Z,47.08
2018-03-25T04:13:45.872Z,51.90
2018-03-25T04:16:14.196Z,53.08
2018-03-25T04:18:42.858Z,54.00
2018-03-25T04:21:12.313Z,47.45
2018-03-25T04:23:40.987Z,45.30
2018-03-25T04:26:10.422Z,46.22
2018-03-25T04:28:39.081Z,46.30
2018-03-25T04:31:08.518Z,45.22
2018-03-25T04:33:37.182Z,46.17
2018-03-25T04:36:05.855Z,47.97
2018-03-25T04:38:35.283Z,66.30
2018-03-25T04:41:03.611Z,46.17
2018-03-25T04:43:32.497Z,54.42
2018-03-25T04:46:01.763Z,47.22
2018-03-25T04:48:30.247Z,44.78
2018-03-25T04:50:58.989Z,48.42
2018-03-25T04:53:27.687Z,47.83
2018-03-25T04:55:57.123Z,54.22
2018-03-25T04:58:25.794Z,46.78
2018-03-25T05:00:54.460Z,43.13
2018-03-25T05:03:23.911Z,44.42
2018-03-25T05:05:52.577Z,45.22
2018-03-25T05:08:21.245Z,48.60
2018-03-25T05:10:50.177Z,48.15
2018-03-25T05:13:18.829Z,51.58
2018-03-25T05:15:47.524Z,51.20
2018-03-25T05:18:16.179Z,52.20
2018-03-25T05:20:44.854Z,47.70
2018-03-25T05:23:13.535Z,46.63
2018-03-25T05:25:42.235Z,50.30
2018-03-25T05:28:10.911Z,47.22
2018-03-25T05:30:39.595Z,48.25
2018-03-25T05:33:08.275Z,44.65
2018-03-25T05:35:36.954Z,44.58
2018-03-25T05:38:05.626Z,51.92
2018-03-25T05:40:34.315Z,46.50
2018-03-25T05:43:02.996Z,50.10
2018-03-25T05:45:31.666Z,42.75
2018-03-25T05:48:00.332Z,48.05
2018-03-25T05:50:29.774Z,43.47
2018-03-25T05:52:58.449Z,46.50
2018-03-25T05:55:28.031Z,49.80
2018-03-25T05:57:57.483Z,45.58
2018-03-25T06:00:26.159Z,44.70
2018-03-25T06:02:54.830Z,42.10
2018-03-25T06:05:23.499Z,47.95
2018-03-25T06:07:52.947Z,44.17
2018-03-25T06:10:21.628Z,42.80
2018-03-25T06:12:50.290Z,43.85
2018-03-25T06:15:18.963Z,42.38
2018-03-25T06:17:48.063Z,42.05
2018-03-25T06:20:16.726Z,41.75
2018-03-25T06:22:45.403Z,43.53
2018-03-25T06:25:14.082Z,44.42
2018-03-25T06:27:42.826Z,39.40
2018-03-25T06:30:11.494Z,40.42
2018-03-25T06:32:40.917Z,42.25
2018-03-25T06:35:09.585Z,44.05
2018-03-25T06:37:38.246Z,37.33
2018-03-25T06:40:06.917Z,47.97
2018-03-25T06:42:35.579Z,39.17
2018-03-25T06:45:03.923Z,41.72
2018-03-25T06:47:33.428Z,40.17
2018-03-25T06:50:02.537Z,44.17
2018-03-25T06:52:31.206Z,38.58
2018-03-25T06:55:00.642Z,40.92
2018-03-25T06:57:29.314Z,41.63
2018-03-25T06:59:58.740Z,38.10
2018-03-25T07:02:27.395Z,39.65
2018-03-25T07:04:56.818Z,40.50
2018-03-25T07:07:25.494Z,46.40
2018-03-25T07:09:54.159Z,41.83
2018-03-25T07:12:22.822Z,39.50
2018-03-25T07:14:51.511Z,48.28
2018-03-25T07:17:21.426Z,44.60
2018-03-25T07:19:50.101Z,43.47
2018-03-25T07:22:18.783Z,42.55
2018-03-25T07:24:47.458Z,41.50
2018-03-25T07:27:16.142Z,47.55
2018-03-25T07:29:44.821Z,42.83
2018-03-25T07:32:13.499Z,41.85
2018-03-25T07:34:42.193Z,44.67
2018-03-25T07:37:10.863Z,46.72
2018-03-25T07:39:39.539Z,44.13
2018-03-25T07:42:08.976Z,42.00
2018-03-25T07:44:37.656Z,44.25
2018-03-25T07:47:06.329Z,43.97
2018-03-25T07:49:35.006Z,41.50
2018-03-25T07:52:03.683Z,55.72
2018-03-25T07:54:32.347Z,40.85
2018-03-25T07:57:01.021Z,41.72
2018-03-25T07:59:29.709Z,42.60
2018-03-25T08:01:58.710Z,46.70
2018-03-25T08:04:27.385Z,41.20
2018-03-25T08:06:56.903Z,43.58
2018-03-25T08:09:25.566Z,41.22
2018-03-25T08:11:55.188Z,40.12
2018-03-25T08:14:23.880Z,37.22
2018-03-25T08:16:53.219Z,41.75
2018-03-25T08:19:22.662Z,44.95
2018-03-25T08:21:51.339Z,44.90
2018-03-25T08:24:20.026Z,42.08
2018-03-25T08:26:48.396Z,37.60
2018-03-25T08:29:16.871Z,40.83
2018-03-25T08:31:46.307Z,35.63
2018-03-25T08:34:15.020Z,44.38
2018-03-25T08:36:43.683Z,39.35
2018-03-25T08:39:12.355Z,45.08
2018-03-25T08:41:42.563Z,38.67
2018-03-25T08:44:11.260Z,40.70
2018-03-25T08:46:39.934Z,39.95
2018-03-25T08:49:09.367Z,38.40
2018-03-25T08:51:38.756Z,38.40
2018-03-25T08:54:08.159Z,39.30
2018-03-25T08:56:36.825Z,39.33
2018-03-25T08:59:07.166Z,42.55
2018-03-25T09:01:35.880Z,42.17
2018-03-25T09:04:04.211Z,40.30
2018-03-25T09:06:32.868Z,37.70
2018-03-25T09:09:02.671Z,41.97
2018-03-25T09:11:33.075Z,36.78
2018-03-25T09:14:01.743Z,38.80
2018-03-25T09:16:31.074Z,39.38
2018-03-25T09:18:59.738Z,39.70
2018-03-25T09:21:28.412Z,51.67
2018-03-25T09:23:57.866Z,40.88
2018-03-25T09:26:26.596Z,41.72
2018-03-25T09:28:55.716Z,47.20
2018-03-25T09:31:24.390Z,40.33
2018-03-25T09:33:53.822Z,37.80
2018-03-25T09:36:22.509Z,41.40
2018-03-25T09:38:51.911Z,43.65
2018-03-25T09:41:20.590Z,37.85
2018-03-25T09:43:49.263Z,35.30
2018-03-25T09:46:18.879Z,40.10
2018-03-25T09:48:47.644Z,38.67
2018-03-25T09:51:17.151Z,41.58
2018-03-25T09:53:46.590Z,38.92
2018-03-25T09:56:15.267Z,41.28
2018-03-25T09:58:43.948Z,40.70
2018-03-25T10:01:30.228Z,37.70
2018-03-25T10:03:59.672Z,42.22
2018-03-25T10:06:28.338Z,38.75
2018-03-25T10:08:57.035Z,44.05
2018-03-25T10:11:25.729Z,37.45
2018-03-25T10:13:54.402Z,43.00
2018-03-25T10:16:23.083Z,42.80
2018-03-25T10:18:51.754Z,39.38
2018-03-25T10:21:20.111Z,39.38
2018-03-25T10:23:48.785Z,45.40
2018-03-25T10:26:17.446Z,37.80
2018-03-25T10:28:46.123Z,40.08
2018-03-25T10:31:14.794Z,42.90
2018-03-25T10:33:43.474Z,39.17
2018-03-25T10:36:12.910Z,43.00
2018-03-25T10:38:41.574Z,43.47
2018-03-25T10:41:09.735Z,37.88
2018-03-25T10:43:39.167Z,37.35
2018-03-25T10:46:07.841Z,38.10
2018-03-25T10:48:36.503Z,39.85
2018-03-25T10:51:05.163Z,36.28
2018-03-25T10:53:33.827Z,36.80
2018-03-25T10:56:02.496Z,39.63
2018-03-25T10:58:32.708Z,36.75
2018-03-25T11:01:01.403Z,39.80
2018-03-25T11:03:30.076Z,37.40
2018-03-25T11:05:59.339Z,39.60
2018-03-25T11:08:28.011Z,37.85
2018-03-25T11:10:56.673Z,38.85
2018-03-25T11:13:25.359Z,35.42
2018-03-25T11:15:54.087Z,36.55
2018-03-25T11:18:22.937Z,40.12
2018-03-25T11:20:51.600Z,36.83
2018-03-25T11:23:20.095Z,42.13
2018-03-25T11:25:48.771Z,36.28
2018-03-25T11:28:18.209Z,35.33
2018-03-25T11:30:46.875Z,35.88
2018-03-25T11:33:15.551Z,39.92
2018-03-25T11:35:44.238Z,32.72
2018-03-25T11:38:12.915Z,40.40
2018-03-25T11:40:42.368Z,36.88
2018-03-25T11:45:47.586Z,38.47
2018-03-25T11:48:16.685Z,36.03
2018-03-25T11:50:45.366Z,37.10
2018-03-25T11:53:14.844Z,36.53
2018-03-25T11:55:45.470Z,38.67
2018-03-25T11:58:14.168Z,36.60
2018-03-25T12:00:43.635Z,35.63
2018-03-25T12:03:12.294Z,35.80
2018-03-25T12:05:41.062Z,36.00
2018-03-25T12:08:10.743Z,38.45
2018-03-25T12:10:39.433Z,36.00
2018-03-25T12:13:08.115Z,34.33
2018-03-25T12:15:36.797Z,38.40
2018-03-25T12:18:05.477Z,34.90
2018-03-25T12:20:34.156Z,35.30
2018-03-25T12:23:02.843Z,48.38
2018-03-25T12:25:31.534Z,35.10
2018-03-25T12:28:00.214Z,35.28
2018-03-25T12:30:28.889Z,38.85
2018-03-25T12:32:57.567Z,38.75
2018-03-25T12:35:26.240Z,35.45
2018-03-25T12:37:55.016Z,35.42
2018-03-25T12:40:24.482Z,38.80
2018-03-25T12:42:53.155Z,44.78
2018-03-25T12:45:22.107Z,34.25
2018-03-25T12:47:51.552Z,37.92
2018-03-25T12:50:20.238Z,34.42
2018-03-25T12:52:48.934Z,38.13
2018-03-25T12:55:17.602Z,36.15
2018-03-25T12:57:46.288Z,36.30
2018-03-25T13:00:14.978Z,35.70
2018-03-25T13:02:43.727Z,34.28
2018-03-25T13:05:13.183Z,39.05
2018-03-25T13:07:41.866Z,37.60
2018-03-25T13:10:10.560Z,37.60
2018-03-25T13:12:39.273Z,37.08
2018-03-25T13:15:08.115Z,36.00
2018-03-25T13:17:37.811Z,39.45
2018-03-25T13:20:05.815Z,37.25
2018-03-25T13:22:34.562Z,36.83
2018-03-25T13:25:04.484Z,37.13
2018-03-25T13:27:33.795Z,37.75
2018-03-25T13:30:02.470Z,37.80
2018-03-25T13:32:31.181Z,36.70
2018-03-25T13:34:59.854Z,37.03
2018-03-25T13:37:30.716Z,37.22
2018-03-25T13:39:59.468Z,38.38
2018-03-25T13:42:28.902Z,38.28
2018-03-25T13:44:57.591Z,39.35
2018-03-25T13:47:26.260Z,38.55
2018-03-25T13:49:54.930Z,37.05
2018-03-25T13:52:24.368Z,36.85
2018-03-25T13:54:53.190Z,35.65
2018-03-25T13:57:21.868Z,41.28
2018-03-25T13:59:50.739Z,35.90
2018-03-25T14:02:19.420Z,44.28
2018-03-25T14:04:48.094Z,40.03
2018-03-25T14:07:16.858Z,42.62
2018-03-25T14:09:45.985Z,43.83
2018-03-25T14:12:14.928Z,38.20
2018-03-25T14:14:43.613Z,41.08
2018-03-25T14:17:12.286Z,44.22
2018-03-25T14:19:40.969Z,41.60
2018-03-25T14:22:09.315Z,40.33
2018-03-25T14:24:37.814Z,42.58
2018-03-25T14:27:06.498Z,39.35
2018-03-25T14:29:35.170Z,39.00
2018-03-25T14:32:03.852Z,39.88
2018-03-25T14:34:32.531Z,42.80
2018-03-25T14:37:01.195Z,40.63
2018-03-25T14:39:30.658Z,44.22
2018-03-25T14:41:59.335Z,41.65
2018-03-25T14:44:28.891Z,38.05
2018-03-25T14:46:58.011Z,41.85
2018-03-25T14:49:26.706Z,44.70
2018-03-25T14:51:55.393Z,39.47
2018-03-25T14:54:24.082Z,38.72
2018-03-25T14:56:53.771Z,43.05
2018-03-25T14:59:23.241Z,43.72
2018-03-25T15:01:51.934Z,42.78
2018-03-25T15:04:21.257Z,42.20
2018-03-25T15:06:50.714Z,43.83
2018-03-25T15:09:19.395Z,42.03
2018-03-25T15:11:48.639Z,41.00
2018-03-25T15:14:17.322Z,41.03
2018-03-25T15:16:45.667Z,42.55
2018-03-25T15:19:14.359Z,45.10
2018-03-25T15:21:42.699Z,40.15
2018-03-25T15:24:11.378Z,45.75
2018-03-25T15:26:40.822Z,42.13
2018-03-25T15:29:09.321Z,46.20
2018-03-25T15:31:37.987Z,43.63
2018-03-25T15:34:06.656Z,48.22
2018-03-25T15:36:35.330Z,48.72
2018-03-25T15:39:03.159Z,47.38
2018-03-25T15:41:31.829Z,45.75
2018-03-25T15:44:01.528Z,48.00
2018-03-25T15:46:30.212Z,47.40
2018-03-25T15:48:58.883Z,48.80
2018-03-25T15:51:27.571Z,48.47
2018-03-25T15:53:56.251Z,48.33
2018-03-25T15:56:25.312Z,45.65
2018-03-25T15:58:54.759Z,43.25
2018-03-25T16:01:24.258Z,46.45
2018-03-25T16:03:53.129Z,42.90
2018-03-25T16:06:22.621Z,40.63
2018-03-25T16:08:51.469Z,45.67
2018-03-25T16:11:20.150Z,49.42
2018-03-25T16:13:49.435Z,50.88
2018-03-25T16:16:18.205Z,41.78
2018-03-25T16:18:47.657Z,44.95
2018-03-25T16:21:16.332Z,46.88
2018-03-25T16:23:45.767Z,47.33
2018-03-25T16:26:14.438Z,51.03
2018-03-25T16:28:43.127Z,47.50
2018-03-25T16:31:11.812Z,46.85
2018-03-25T16:33:40.504Z,51.45
2018-03-25T16:36:09.833Z,44.75
2018-03-25T16:38:38.506Z,47.60
2018-03-25T16:41:08.119Z,45.33
2018-03-25T16:43:38.064Z,44.70
2018-03-25T16:46:07.512Z,46.22
2018-03-25T16:48:36.667Z,48.03
2018-03-25T16:51:06.843Z,44.65
2018-03-25T16:53:39.422Z,43.53
2018-03-25T16:56:08.932Z,46.00
2018-03-25T16:58:37.656Z,44.83
2018-03-25T17:01:09.382Z,44.90
2018-03-25T17:06:23.889Z,43.35
2018-03-25T17:08:53.154Z,61.42
2018-03-25T17:11:21.824Z,46.05
2018-03-25T17:13:51.234Z,47.00
2018-03-25T17:16:20.363Z,48.00
2018-03-25T17:18:50.645Z,48.28
2018-03-25T17:21:20.276Z,54.85
2018-03-25T17:23:49.004Z,51.80
2018-03-25T17:26:18.478Z,52.38
2018-03-25T17:28:47.155Z,48.00
2018-03-25T17:31:16.166Z,52.15
2018-03-25T17:33:44.561Z,49.38
2018-03-25T17:36:14.010Z,48.58
2018-03-25T17:38:44.395Z,49.85
2018-03-25T17:41:13.411Z,48.78
2018-03-25T17:43:42.251Z,48.13
2018-03-25T17:46:11.723Z,53.17
2018-03-25T17:48:41.607Z,50.33
2018-03-25T17:51:11.317Z,48.55
2018-03-25T17:53:40.462Z,53.53
2018-03-25T17:56:09.139Z,52.03
2018-03-25T17:58:37.801Z,52.88
2018-03-25T18:01:07.231Z,53.75
2018-03-25T18:03:35.890Z,53.67
2018-03-25T18:06:04.218Z,49.17
2018-03-25T18:08:32.888Z,53.05
2018-03-25T18:11:02.334Z,51.58
2018-03-25T18:13:31.023Z,50.63
2018-03-25T18:15:59.349Z,53.30
2018-03-25T18:18:28.056Z,55.30
2018-03-25T18:20:56.796Z,54.95
2018-03-25T18:23:25.503Z,56.20
2018-03-25T18:25:53.847Z,55.45
2018-03-25T18:28:22.706Z,51.40
2018-03-25T18:30:52.530Z,50.30
2018-03-25T18:33:21.299Z,51.60
2018-03-25T18:35:50.031Z,59.63
2018-03-25T18:38:18.844Z,49.45
2018-03-25T18:40:47.516Z,49.53
2018-03-25T18:43:16.958Z,55.78
2018-03-25T18:45:45.633Z,52.03
2018-03-25T18:48:14.324Z,54.35
2018-03-25T18:50:43.933Z,57.65
2018-03-25T18:53:13.320Z,57.05
2018-03-25T18:55:42.680Z,55.15
2018-03-25T18:58:11.371Z,55.92
2018-03-25T19:00:40.063Z,57.30
2018-03-25T19:03:08.914Z,56.28
2018-03-25T19:05:37.660Z,63.70
2018-03-25T19:08:06.931Z,55.85
2018-03-25T19:13:09.300Z,56.15
2018-03-25T19:15:38.017Z,66.37
2018-03-25T19:18:05.852Z,55.30
2018-03-25T19:20:34.256Z,54.58
2018-03-25T19:23:05.982Z,59.85
2018-03-25T19:25:42.900Z,55.60
2018-03-25T19:28:21.956Z,55.53
2018-03-25T19:30:53.059Z,54.47
2018-03-25T19:33:21.746Z,54.13
2018-03-25T19:35:50.425Z,57.60
2018-03-25T19:38:21.073Z,61.22
2018-03-25T19:40:51.416Z,64.15
2018-03-25T19:43:20.090Z,60.30
2018-03-25T19:45:48.754Z,55.83
2018-03-25T19:48:17.424Z,59.85
2018-03-25T19:50:45.800Z,53.63
2018-03-25T19:53:14.500Z,61.90
2018-03-25T19:55:43.942Z,55.12
2018-03-25T19:58:12.619Z,58.45
2018-03-25T20:00:41.306Z,60.95
2018-03-25T20:03:09.992Z,60.42
2018-03-25T20:05:38.708Z,58.65
2018-03-25T20:08:07.984Z,61.33
2018-03-25T20:10:36.498Z,53.53
2018-03-25T20:13:05.215Z,59.75
2018-03-25T20:15:33.893Z,52.35
2018-03-25T20:18:02.619Z,55.45
2018-03-25T20:20:31.462Z,60.70
2018-03-25T20:23:00.203Z,65.30
2018-03-25T20:25:28.880Z,58.53
2018-03-25T20:27:57.547Z,61.53
2018-03-25T20:30:27.320Z,58.95
2018-03-25T20:32:56.774Z,55.72
2018-03-25T20:35:25.450Z,58.08
2018-03-25T20:37:54.203Z,63.80
2018-03-25T20:40:23.669Z,58.97
2018-03-25T20:42:52.334Z,64.55
2018-03-25T20:45:21.874Z,61.90
2018-03-25T20:47:51.437Z,61.30
2018-03-25T20:50:20.410Z,66.32
2018-03-25T20:52:49.382Z,57.30
2018-03-25T20:55:18.835Z,64.85
2018-03-25T20:57:47.337Z,60.65
2018-03-25T21:00:16.042Z,64.28
2018-03-25T21:02:44.272Z,59.72
2018-03-25T21:05:13.096Z,58.00
2018-03-25T21:07:41.918Z,63.92
2018-03-25T21:10:11.396Z,59.15
2018-03-25T21:12:39.737Z,60.58
2018-03-25T21:15:08.908Z,62.28
2018-03-25T21:17:38.364Z,66.55
2018-03-25T21:20:06.397Z,61.25
2018-03-25T21:22:35.068Z,63.03
2018-03-25T21:25:03.686Z,64.90
2018-03-25T21:27:32.366Z,65.10
2018-03-25T21:30:01.031Z,60.33
2018-03-25T21:32:30.486Z,64.85
2018-03-25T21:34:59.163Z,62.95
2018-03-25T21:37:28.099Z,63.90
2018-03-25T21:39:57.825Z,62.33
2018-03-25T21:42:27.334Z,71.37
2018-03-25T21:44:58.426Z,62.60
2018-03-25T21:47:27.131Z,64.47
2018-03-25T21:49:59.245Z,66.78
2018-03-25T21:52:27.913Z,61.28
2018-03-25T21:54:56.679Z,63.60
2018-03-25T21:57:26.155Z,60.83
2018-03-25T21:59:55.283Z,62.72
2018-03-25T22:02:23.966Z,64.45
2018-03-25T22:04:53.041Z,66.82
2018-03-25T22:07:21.710Z,72.07
2018-03-25T22:09:50.409Z,61.10
2018-03-25T22:12:19.100Z,63.60
2018-03-25T22:14:47.789Z,63.53
2018-03-25T22:17:16.471Z,56.65
2018-03-25T22:19:45.208Z,63.15
2018-03-25T22:22:14.638Z,73.65
2018-03-25T22:24:43.311Z,66.65
2018-03-25T22:27:12.961Z,65.28
2018-03-25T22:29:41.630Z,65.55
2018-03-25T22:32:10.382Z,64.28
2018-03-25T22:34:39.203Z,63.63
2018-03-25T22:37:07.866Z,60.28
2018-03-25T22:39:37.309Z,63.80
2018-03-25T22:42:05.659Z,62.22
2018-03-25T22:44:34.322Z,57.72
2018-03-25T22:47:03.755Z,64.30
2018-03-25T22:49:32.434Z,62.08
2018-03-25T22:52:01.116Z,57.00
2018-03-25T22:54:30.559Z,56.70
2018-03-25T22:56:59.236Z,59.28
2018-03-25T22:59:27.907Z,58.40
2018-03-25T23:01:56.239Z,58.25
2018-03-25T23:04:24.929Z,58.33
2018-03-25T23:06:53.603Z,60.12
2018-03-25T23:09:22.276Z,59.90
2018-03-25T23:11:50.945Z,55.65
2018-03-25T23:14:19.615Z,61.03
2018-03-25T23:16:48.281Z,62.10
2018-03-25T23:19:17.721Z,57.20
2018-03-25T23:21:46.390Z,67.18
2018-03-25T23:24:15.054Z,62.22
2018-03-25T23:26:43.719Z,58.13
2018-03-25T23:29:12.374Z,52.85
2018-03-25T23:31:41.128Z,55.55
2018-03-25T23:34:10.568Z,56.13
2018-03-25T23:36:39.267Z,57.42
2018-03-25T23:39:07.943Z,61.20
2018-03-25T23:41:36.633Z,59.88
2018-03-25T23:44:05.299Z,57.55
2018-03-25T23:46:33.962Z,54.72
2018-03-25T23:49:03.399Z,59.78
2018-03-25T23:51:32.078Z,59.72
2018-03-25T23:54:00.747Z,58.70
2018-03-25T23:56:30.170Z,57.22
2018-03-25T23:58:58.842Z,57.90
